.
WxDataArchive / Data Records for 2011-03-23
2011-03-22 March 2011 2011-03-24

Data Records for Wednesday, 23 March 2011

Time	Temp	Chill	HIndex	Humid	Dewpt	 Wind 	HiWind	WindDir	Rain 	Barom 
-----	----	-----	------	-----	-----	------	------	-------	-----	----- 
00:00	36.3	31.4	36.3	92	34.2	6	14	90	0.00	29.743 
00:05	36.3	32.1	36.3	92	34.2	5	12	90	0.00	29.743 
00:10	36.5	31.6	36.5	92	34.4	6	16	90	0.00	29.743 
00:15	36.5	30.9	36.5	92	34.4	7	16	112	0.00	29.766 
00:20	36.6	32.5	36.6	92	34.5	5	12	90	0.00	29.766 
00:25	36.6	31.7	36.6	92	34.5	6	13	90	0.00	29.766 
00:30	36.6	31.7	36.6	92	34.5	6	12	90	0.00	29.773 
00:35	36.6	32.5	36.6	91	34.2	5	10	112	0.00	29.773 
00:40	36.8	31.9	36.8	91	34.4	6	14	112	0.00	29.773 
00:45	36.8	32.7	36.8	91	34.4	5	11	112	0.00	29.764 
00:50	36.9	33.7	36.9	91	34.5	4	10	90	0.00	29.764 
00:55	36.9	33.7	36.9	91	34.5	4	11	90	0.00	29.764 
01:00	36.9	33.7	36.9	91	34.5	4	7	68	0.00	29.768 
01:05	37.0	32.9	37.0	91	34.6	5	10	90	0.00	29.768 
01:10	37.0	33.9	37.0	91	34.6	4	11	90	0.00	29.768 
01:15	37.0	32.9	37.0	91	34.6	5	13	90	0.00	29.749 
01:20	37.0	33.9	37.0	91	34.6	4	9	90	0.00	29.749 
01:25	37.0	33.9	37.0	91	34.6	4	11	90	0.00	29.749 
01:30	37.2	33.2	37.2	91	34.8	5	15	112	0.00	29.742 
01:35	37.2	33.2	37.2	91	34.8	5	11	90	0.00	29.742 
01:40	37.2	37.2	37.2	91	34.8	3	11	90	0.00	29.742 
01:45	37.2	34.1	37.2	91	34.8	4	12	112	0.00	29.742 
01:50	37.2	33.2	37.2	91	34.8	5	12	112	0.00	29.742 
01:55	37.3	34.2	37.3	91	34.9	4	9	112	0.00	29.742 
02:00	37.3	33.3	37.3	90	34.6	5	15	112	0.00	29.727 
02:05	37.3	32.5	37.3	90	34.6	6	13	90	0.00	29.727 
02:10	37.5	34.4	37.5	90	34.8	4	10	90	0.00	29.727 
02:15	37.5	32.8	37.5	90	34.8	6	10	112	0.00	29.713 
02:20	37.5	34.4	37.5	90	34.8	4	11	90	0.00	29.713 
02:25	37.3	33.3	37.3	90	34.6	5	12	90	0.00	29.713 
02:30	37.3	34.2	37.3	90	34.6	4	10	112	0.00	29.707 
02:35	37.3	31.9	37.3	90	34.6	7	14	90	0.00	29.707 
02:40	37.3	33.3	37.3	90	34.6	5	12	112	0.00	29.707 
02:45	37.3	33.3	37.3	90	34.6	5	11	112	0.00	29.695 
02:50	37.3	33.3	37.3	90	34.6	5	11	112	0.00	29.695 
02:55	37.3	33.3	37.3	90	34.6	5	11	112	0.00	29.695 
03:00	37.3	31.9	37.3	90	34.6	7	16	90	0.00	29.679 
03:05	37.2	33.2	37.2	90	34.5	5	14	112	0.00	29.679 
03:10	37.2	34.1	37.2	90	34.5	4	10	90	0.00	29.679 
03:15	37.2	34.1	37.2	90	34.5	4	11	90	0.00	29.678 
03:20	37.2	34.1	37.2	91	34.8	4	11	90	0.00	29.678 
03:25	37.2	34.1	37.2	91	34.8	4	10	112	0.00	29.678 
03:30	37.2	34.1	37.2	91	34.8	4	11	90	0.00	29.674 
03:35	37.0	32.9	37.0	91	34.6	5	10	90	0.00	29.674 
03:40	37.0	33.9	37.0	92	34.9	4	12	90	0.00	29.674 
03:45	37.0	33.9	37.0	92	34.9	4	9	90	0.01	29.668 
03:50	36.9	32.8	36.9	92	34.8	5	12	90	0.00	29.668 
03:55	36.8	36.8	36.8	92	34.7	3	10	90	0.00	29.668 
04:00	36.9	32.1	36.9	92	34.8	6	12	90	0.00	29.651 
04:05	36.8	36.8	36.8	93	35.0	3	11	112	0.00	29.651 
04:10	36.8	32.7	36.8	93	35.0	5	10	90	0.00	29.651 
04:15	36.8	36.8	36.8	93	35.0	2	7	112	0.00	29.662 
04:20	36.8	36.8	36.8	93	35.0	3	10	112	0.00	29.662 
04:25	36.8	33.6	36.8	93	35.0	4	11	90	0.01	29.662 
04:30	36.8	33.6	36.8	93	35.0	4	9	90	0.00	29.642 
04:35	36.8	32.7	36.8	93	35.0	5	13	90	0.00	29.642 
04:40	36.8	32.7	36.8	94	35.2	5	11	90	0.00	29.642 
04:45	36.8	32.7	36.8	94	35.2	5	10	90	0.00	29.628 
04:50	36.8	31.9	36.8	94	35.2	6	12	90	0.00	29.628 
04:55	36.8	31.9	36.8	94	35.2	6	11	112	0.00	29.628 
05:00	36.8	32.7	36.8	94	35.2	5	12	90	0.00	29.618 
05:05	36.8	31.9	36.8	94	35.2	6	14	90	0.00	29.618 
05:10	36.6	32.5	36.6	94	35.0	5	13	90	0.00	29.618 
05:15	36.6	31.7	36.6	94	35.0	6	13	112	0.00	29.605 
05:20	36.6	32.5	36.6	94	35.0	5	11	112	0.00	29.605 
05:25	36.6	31.7	36.6	94	35.0	6	12	90	0.00	29.605 
05:30	36.5	30.9	36.5	94	34.9	7	12	90	0.00	29.588 
05:35	36.5	31.6	36.5	94	34.9	6	12	112	0.00	29.588 
05:40	36.5	31.6	36.5	94	34.9	6	17	112	0.00	29.588 
05:45	36.5	32.4	36.5	94	34.9	5	13	112	0.00	29.585 
05:50	36.5	36.5	36.5	94	34.9	3	10	112	0.00	29.585 
05:55	36.5	33.3	36.5	94	34.9	4	10	90	0.00	29.585 
06:00	36.5	33.3	36.5	94	34.9	4	11	90	0.00	29.594 
06:05	36.5	32.4	36.5	94	34.9	5	12	90	0.00	29.594 
06:10	36.5	31.6	36.5	94	34.9	6	13	112	0.00	29.594 
06:15	36.3	32.1	36.3	94	34.7	5	13	90	0.00	29.586 
06:20	36.3	33.0	36.3	94	34.7	4	11	90	0.00	29.586 
06:25	36.3	32.1	36.3	94	34.7	5	10	112	0.00	29.586 
06:30	36.3	33.0	36.3	95	35.0	4	10	90	0.00	29.585 
06:35	36.3	32.1	36.3	95	35.0	5	11	112	0.00	29.585 
06:40	36.3	36.3	36.3	95	35.0	3	6	112	0.00	29.585 
06:45	36.2	32.0	36.2	95	34.9	5	10	112	0.00	29.586 
06:50	36.2	36.2	36.2	95	34.9	2	4	112	0.00	29.586 
06:55	36.2	36.2	36.2	95	34.9	2	5	112	0.00	29.586 
07:00	36.2	36.2	36.2	95	34.9	3	9	112	0.00	29.587 
07:05	36.2	36.2	36.2	95	34.9	2	9	112	0.00	29.587 
07:10	36.3	36.3	36.3	95	35.0	1	3	90	0.01	29.587 
07:15	36.5	36.5	36.5	95	35.2	1	3	90	0.00	29.601 
07:20	36.5	36.5	36.5	95	35.2	1	3	90	0.00	29.601 
07:25	36.3	36.3	36.3	95	35.0	0	3	90	0.00	29.601 
07:30	36.3	36.3	36.3	95	35.0	1	7	90	0.00	29.600 
07:35	36.3	36.3	36.3	95	35.0	2	6	90	0.00	29.600 
07:40	36.2	36.2	36.2	95	34.9	1	6	112	0.00	29.600 
07:45	36.2	36.2	36.2	95	34.9	2	6	112	0.00	29.598 
07:50	36.2	32.9	36.2	95	34.9	4	9	90	0.00	29.598 
07:55	36.2	36.2	36.2	95	34.9	3	8	112	0.00	29.598 
08:00	36.2	36.2	36.2	95	34.9	1	5	112	0.00	29.604 
08:05	36.2	36.2	36.2	95	34.9	2	11	112	0.00	29.604 
08:10	36.2	36.2	36.2	95	34.9	1	3	90	0.00	29.604 
08:15	36.2	36.2	36.2	95	34.9	1	4	90	0.00	29.614 
08:20	36.2	36.2	36.2	95	34.9	2	7	90	0.00	29.614 
08:25	36.0	36.0	36.0	95	34.7	2	9	112	0.00	29.614 
08:30	36.0	36.0	36.0	95	34.7	3	7	112	0.00	29.603 
08:35	36.0	36.0	36.0	95	34.7	1	5	90	0.00	29.603 
08:40	36.2	36.2	36.2	95	34.9	1	5	45	0.00	29.603 
08:45	36.2	36.2	36.2	95	34.9	2	5	112	0.00	29.604 
08:50	36.2	36.2	36.2	95	34.9	2	6	112	0.00	29.604 
08:55	36.2	36.2	36.2	95	34.9	3	6	90	0.00	29.604 
09:00	36.2	36.2	36.2	95	34.9	2	7	90	0.00	29.618 
09:05	36.3	36.3	36.3	95	35.0	1	3	90	0.00	29.618 
09:10	36.2	36.2	36.2	95	34.9	3	7	90	0.00	29.618 
09:15	36.3	36.3	36.3	95	35.0	2	6	112	0.00	29.607 
09:20	36.5	36.5	36.5	95	35.2	2	6	112	0.00	29.607 
09:25	36.5	33.3	36.5	95	35.2	4	9	112	0.00	29.607 
09:30	36.5	33.3	36.5	95	35.2	4	10	90	0.00	29.588 
09:35	36.5	32.4	36.5	95	35.2	5	10	90	0.00	29.588 
09:40	36.6	32.5	36.6	95	35.3	5	13	112	0.00	29.588 
09:45	36.5	31.6	36.5	95	35.2	6	12	112	0.00	29.554 
09:50	36.6	31.7	36.6	95	35.3	6	12	112	0.00	29.554 
09:55	36.6	31.0	36.6	95	35.3	7	13	112	0.00	29.554 
10:00	36.6	32.5	36.6	95	35.3	5	15	90	0.00	29.536 
10:05	36.8	31.9	36.8	95	35.5	6	12	112	0.00	29.536 
10:10	36.8	31.3	36.8	95	35.5	7	15	90	0.00	29.536 
10:15	36.9	32.8	36.9	95	35.6	5	12	90	0.00	29.525 
10:20	37.0	33.9	37.0	95	35.7	4	11	90	0.00	29.525 
10:25	37.2	34.1	37.2	95	35.9	4	11	90	0.00	29.525 
10:30	37.3	34.2	37.3	95	36.0	4	11	112	0.00	29.530 
10:35	37.5	37.5	37.5	95	36.2	3	6	90	0.00	29.530 
10:40	37.6	34.5	37.6	95	36.3	4	10	112	0.00	29.530 
10:45	37.6	34.5	37.6	95	36.3	4	7	112	0.00	29.536 
10:50	37.8	37.8	37.8	95	36.5	3	7	112	0.00	29.536 
10:55	37.9	34.9	37.9	95	36.6	4	7	90	0.00	29.536 
11:00	37.8	34.8	37.8	95	36.5	4	6	90	0.00	29.544 
11:05	37.9	37.9	37.9	95	36.6	2	7	68	0.00	29.544 
11:10	38.0	38.0	38.0	95	36.7	2	6	68	0.00	29.544 
11:15	38.0	38.0	38.0	95	36.7	3	8	90	0.00	29.546 
11:20	38.2	38.2	38.2	95	36.9	3	6	90	0.00	29.546 
11:25	38.2	38.2	38.2	95	36.9	3	5	90	0.00	29.546 
11:30	38.3	38.3	38.3	95	37.0	2	6	90	0.00	29.539 
11:35	38.5	38.5	38.5	95	37.2	2	4	90	0.00	29.539 
11:40	38.5	38.5	38.5	95	37.2	3	8	90	0.00	29.539 
11:45	38.6	38.6	38.6	95	37.3	2	5	90	0.00	29.540 
11:50	38.8	38.8	38.8	95	37.5	2	9	90	0.00	29.540 
11:55	38.9	38.9	38.9	95	37.6	1	4	90	0.00	29.540 
12:00	39.1	39.1	39.1	95	37.8	2	5	90	0.00	29.540 
12:05	39.1	39.1	39.1	95	37.8	2	6	90	0.00	29.540 
12:10	39.1	39.1	39.1	95	37.8	1	3	90	0.00	29.540 
12:15	39.2	39.2	39.2	95	37.9	1	4	90	0.00	29.550 
12:20	39.2	39.2	39.2	95	37.9	1	4	90	0.00	29.550 
12:25	39.3	39.3	39.3	95	38.0	1	4	90	0.00	29.550 
12:30	39.3	39.3	39.3	95	38.0	0	2	90	0.00	29.553 
12:35	39.2	39.2	39.2	95	37.9	1	3	90	0.00	29.553 
12:40	39.2	39.2	39.2	95	37.9	1	4	90	0.00	29.553 
12:45	39.3	39.3	39.3	95	38.0	1	3	90	0.00	29.564 
12:50	39.3	39.3	39.3	95	38.0	0	3	90	0.00	29.564 
12:55	39.3	39.3	39.3	95	38.0	0	3	90	0.00	29.564 
13:00	39.3	39.3	39.3	95	38.0	1	3	90	0.00	29.569 
13:05	39.3	39.3	39.3	95	38.0	1	3	90	0.00	29.569 
13:10	39.5	39.5	39.5	95	38.2	1	3	90	0.00	29.569 
13:15	39.6	39.6	39.6	95	38.3	0	2	90	0.00	29.566 
13:20	39.9	39.9	39.9	95	38.6	1	6	90	0.00	29.566 
13:25	39.9	39.9	39.9	95	38.6	1	4	45	0.00	29.566 
13:30	39.8	39.8	39.8	95	38.5	1	2	112	0.00	29.575 
13:35	39.5	39.5	39.5	94	37.9	1	4	68	0.00	29.575 
13:40	39.3	39.3	39.3	94	37.7	1	4	68	0.00	29.575 
13:45	39.2	39.2	39.2	94	37.6	1	5	68	0.01	29.572 
13:50	39.2	39.2	39.2	95	37.9	2	5	45	0.00	29.572 
13:55	39.5	39.5	39.5	95	38.2	2	5	90	0.00	29.572 
14:00	39.3	39.3	39.3	94	37.7	1	5	90	0.00	29.569 
14:05	39.2	39.2	39.2	94	37.6	1	4	90	0.01	29.569 
14:10	39.1	39.1	39.1	94	37.5	1	5	68	0.01	29.569 
14:15	38.9	38.9	38.9	94	37.3	1	4	22	0.00	29.551 
14:20	38.9	38.9	38.9	94	37.3	2	5	112	0.00	29.551 
14:25	38.8	38.8	38.8	94	37.2	1	4	45	0.00	29.551 
14:30	39.1	39.1	39.1	95	37.8	2	5	68	0.01	29.546 
14:35	40.1	40.1	40.1	95	38.8	2	6	112	0.00	29.546 
14:40	40.5	37.1	40.5	95	39.2	5	14	112	0.00	29.546 
14:45	40.9	40.9	40.9	95	39.6	3	12	90	0.00	29.535 
14:50	40.9	38.4	40.9	94	39.3	4	10	90	0.00	29.535 
14:55	41.1	41.1	41.1	95	39.8	3	7	112	0.00	29.535 
15:00	41.2	41.2	41.2	94	39.6	2	7	112	0.00	29.536 
15:05	41.3	41.3	41.3	94	39.7	1	4	112	0.00	29.536 
15:10	41.2	41.2	41.2	94	39.6	2	6	45	0.00	29.536 
15:15	41.3	41.3	41.3	93	39.4	2	7	112	0.00	29.533 
15:20	41.3	41.3	41.3	93	39.4	3	9	112	0.00	29.533 
15:25	41.3	41.3	41.3	92	39.2	2	9	112	0.00	29.533 
15:30	41.3	41.3	41.3	92	39.2	2	6	112	0.00	29.536 
15:35	41.6	41.6	41.6	92	39.5	2	5	112	0.00	29.536 
15:40	41.8	41.8	41.8	92	39.6	1	5	135	0.00	29.536 
15:45	41.9	41.9	41.9	92	39.7	2	6	90	0.00	29.534 
15:50	42.1	42.1	42.1	92	39.9	1	4	0	0.00	29.534 
15:55	41.9	41.9	41.9	91	39.5	1	3	45	0.00	29.534 
16:00	41.8	41.8	41.8	91	39.4	1	4	45	0.00	29.536 
16:05	41.6	41.6	41.6	90	38.9	2	7	112	0.00	29.536 
16:10	41.8	41.8	41.8	91	39.4	1	5	90	0.00	29.536 
16:15	41.9	41.9	41.9	91	39.5	1	4	45	0.00	29.537 
16:20	42.1	42.1	42.1	91	39.7	1	3	112	0.00	29.537 
16:25	42.1	42.1	42.1	90	39.4	1	3	22	0.00	29.537 
16:30	41.8	41.8	41.8	89	38.8	1	4	22	0.00	29.549 
16:35	41.6	41.6	41.6	89	38.6	0	3	0	0.00	29.549 
16:40	41.3	41.3	41.3	89	38.3	1	5	338	0.00	29.549 
16:45	41.2	41.2	41.2	89	38.2	2	5	112	0.00	29.538 
16:50	41.2	41.2	41.2	89	38.2	1	7	68	0.00	29.538 
16:55	40.9	40.9	40.9	89	37.9	3	7	112	0.00	29.538 
17:00	40.8	40.8	40.8	89	37.8	1	4	112	0.00	29.546 
17:05	40.6	40.6	40.6	89	37.6	2	5	112	0.00	29.546 
17:10	40.3	40.3	40.3	89	37.3	2	6	45	0.00	29.546 
17:15	40.2	40.2	40.2	88	36.9	2	7	68	0.00	29.549 
17:20	40.1	40.1	40.1	89	37.1	1	6	68	0.00	29.549 
17:25	39.8	39.8	39.8	89	36.8	3	10	112	0.00	29.549 
17:30	39.6	39.6	39.6	89	36.6	1	5	338	0.00	29.554 
17:35	39.3	39.3	39.3	89	36.3	1	7	90	0.00	29.554 
17:40	39.2	39.2	39.2	90	36.5	2	5	22	0.00	29.554 
17:45	39.1	39.1	39.1	90	36.4	2	7	90	0.00	29.567 
17:50	38.8	38.8	38.8	90	36.1	2	6	90	0.00	29.567 
17:55	38.6	38.6	38.6	90	35.9	2	6	112	0.00	29.567 
18:00	38.5	38.5	38.5	90	35.8	1	4	45	0.00	29.564 
18:05	38.3	38.3	38.3	90	35.6	1	3	68	0.00	29.564 
18:10	38.3	38.3	38.3	90	35.6	2	6	90	0.00	29.564 
18:15	37.9	34.9	37.9	90	35.2	4	11	90	0.00	29.571 
18:20	37.5	33.5	37.5	90	34.8	5	11	90	0.00	29.571 
18:25	37.3	37.3	37.3	91	34.9	3	7	112	0.00	29.571 
18:30	37.2	37.2	37.2	91	34.8	3	7	90	0.00	29.575 
18:35	37.0	37.0	37.0	91	34.6	3	13	90	0.00	29.575 
18:40	36.8	36.8	36.8	91	34.4	2	7	90	0.00	29.575 
18:45	36.6	36.6	36.6	91	34.2	2	6	90	0.00	29.597 
18:50	36.5	36.5	36.5	91	34.1	2	9	22	0.00	29.597 
18:55	36.5	36.5	36.5	91	34.1	2	5	90	0.00	29.597 
19:00	36.5	36.5	36.5	92	34.4	2	10	90	0.00	29.598 
19:05	36.3	36.3	36.3	91	33.9	3	11	45	0.00	29.598 
19:10	36.2	32.9	36.2	91	33.8	4	11	112	0.00	29.598 
19:15	35.9	32.6	35.9	91	33.5	4	12	112	0.00	29.596 
19:20	35.9	32.6	35.9	92	33.8	4	11	112	0.00	29.596 
19:25	35.8	35.8	35.8	92	33.7	3	8	90	0.00	29.596 
19:30	35.6	35.6	35.6	92	33.5	2	11	68	0.00	29.606 
19:35	35.6	32.2	35.6	92	33.5	4	14	112	0.00	29.606 
19:40	35.5	35.5	35.5	92	33.4	3	11	112	0.00	29.606 
19:45	35.3	31.0	35.3	92	33.2	5	12	112	0.00	29.624 
19:50	35.3	35.3	35.3	92	33.2	3	13	90	0.00	29.624 
19:55	35.2	31.8	35.2	92	33.1	4	10	112	0.00	29.624 
20:00	35.0	35.0	35.0	92	32.9	3	12	90	0.00	29.629 
20:05	34.7	34.7	34.7	92	32.6	3	11	45	0.00	29.629 
20:10	34.6	34.6	34.6	92	32.5	2	7	45	0.00	29.629 
20:15	34.4	34.4	34.4	92	32.3	2	6	112	0.00	29.644 
20:20	34.3	34.3	34.3	92	32.2	3	7	112	0.00	29.644 
20:25	34.1	34.1	34.1	92	32.0	3	9	112	0.00	29.644 
20:30	34.0	34.0	34.0	93	32.2	2	7	90	0.00	29.656 
20:35	33.8	33.8	33.8	93	32.0	2	10	112	0.00	29.656 
20:40	33.7	33.7	33.7	93	31.9	2	6	22	0.00	29.656 
20:45	33.7	29.1	33.7	93	31.9	5	12	90	0.00	29.673 
20:50	33.5	28.8	33.5	93	31.7	5	11	90	0.00	29.673 
20:55	33.4	29.7	33.4	93	31.6	4	11	90	0.00	29.673 
21:00	33.4	33.4	33.4	93	31.6	2	9	90	0.00	29.674 
21:05	33.2	33.2	33.2	93	31.4	3	9	45	0.00	29.674 
21:10	33.2	29.5	33.2	93	31.4	4	12	112	0.00	29.674 
21:15	33.2	29.5	33.2	93	31.4	4	11	112	0.00	29.686 
21:20	33.2	33.2	33.2	93	31.4	2	9	112	0.00	29.686 
21:25	33.2	33.2	33.2	93	31.4	1	5	90	0.00	29.686 
21:30	33.2	33.2	33.2	93	31.4	3	9	112	0.00	29.691 
21:35	33.2	33.2	33.2	93	31.4	3	9	90	0.00	29.691 
21:40	33.2	33.2	33.2	93	31.4	3	9	112	0.00	29.691 
21:45	33.1	33.1	33.1	93	31.3	2	6	90	0.00	29.701 
21:50	33.1	33.1	33.1	93	31.3	2	7	112	0.00	29.701 
21:55	33.1	33.1	33.1	93	31.3	1	6	68	0.00	29.701 
22:00	33.1	33.1	33.1	93	31.3	1	4	135	0.00	29.706 
22:05	32.9	32.9	32.9	93	31.1	1	9	112	0.00	29.706 
22:10	32.9	32.9	32.9	93	31.1	2	7	112	0.00	29.706 
22:15	32.9	32.9	32.9	93	31.1	2	6	112	0.00	29.703 
22:20	32.9	32.9	32.9	93	31.1	1	6	68	0.00	29.703 
22:25	32.9	32.9	32.9	93	31.1	2	6	90	0.00	29.703 
22:30	32.8	32.8	32.8	93	31.0	2	9	90	0.00	29.708 
22:35	32.8	32.8	32.8	93	31.0	2	6	90	0.00	29.708 
22:40	32.8	32.8	32.8	93	31.0	2	6	45	0.00	29.708 
22:45	32.8	32.8	32.8	93	31.0	2	6	68	0.00	29.672 
22:50	32.8	32.8	32.8	93	31.0	2	6	68	0.00	29.672 
22:55	32.7	32.7	32.7	93	30.9	2	7	112	0.00	29.672 
23:00	32.7	32.7	32.7	93	30.9	2	5	90	0.00	29.696 
23:05	32.5	32.5	32.5	93	30.7	1	5	90	0.00	29.696 
23:10	32.4	32.4	32.4	93	30.6	2	7	90	0.00	29.696 
23:15	32.2	32.2	32.2	93	30.4	1	5	45	0.00	29.709 
23:20	32.2	32.2	32.2	93	30.4	1	3	22	0.00	29.709 
23:25	32.2	32.2	32.2	93	30.4	1	4	68	0.00	29.709 
23:30	32.2	32.2	32.2	93	30.4	1	5	90	0.00	29.724 
23:35	32.2	32.2	32.2	93	30.4	2	6	22	0.00	29.724 
23:40	32.1	32.1	32.1	93	30.3	1	5	68	0.00	29.724 
23:45	32.1	32.1	32.1	93	30.3	1	3	45	0.00	29.734 
23:50	32.1	32.1	32.1	93	30.3	1	4	45	0.00	29.734 
23:55	31.9	31.9	31.9	92	29.8	1	3	22	0.00	29.734 

CoCoRaHS
IN-AL-39
A2 Web Hosting
Creative Commons License
GoDaddy
search engine by freefind advanced

loaded 2018-11-15 18:11:57 • last modified 2010-11-18 10:43:29
Privacy PolicyDisclaimer
• wx.awcolley.com is powered by PmWiki v.2002016 •
• all content (unless otherwise noted) © 2018 A W Colley